createdAt,value
2022-08-19T00:00:00.190Z,0.6
2022-08-19T00:01:00.153Z,0.6
2022-08-19T00:02:00.378Z,0.6
2022-08-19T00:03:00.164Z,0.6
2022-08-19T00:04:01.353Z,0.6
2022-08-19T00:05:00.294Z,0.5
2022-08-19T00:06:00.180Z,0.5
2022-08-19T00:07:00.436Z,0.5
2022-08-19T00:08:00.481Z,0.5
2022-08-19T00:09:00.153Z,0.5
2022-08-19T00:10:00.287Z,0.5
2022-08-19T00:11:00.157Z,0.5
2022-08-19T00:12:00.349Z,0.5
2022-08-19T00:13:00.149Z,0.5
2022-08-19T00:14:00.649Z,0.5
2022-08-19T00:15:00.151Z,0.5
2022-08-19T00:16:00.267Z,0.5
2022-08-19T00:17:00.694Z,0.5
2022-08-19T00:18:00.202Z,0.5
2022-08-19T00:19:00.220Z,0.5
2022-08-19T00:20:00.172Z,0.5
2022-08-19T00:21:00.157Z,0.5
2022-08-19T00:22:00.156Z,0.5
2022-08-19T00:23:00.162Z,0.5
2022-08-19T00:24:00.153Z,0.5
2022-08-19T00:25:00.192Z,0.8
2022-08-19T00:26:00.317Z,0.8
2022-08-19T00:27:04.931Z,0.8
2022-08-19T00:28:00.144Z,0.8
2022-08-19T00:29:00.163Z,0.8
2022-08-19T00:30:00.711Z,0.8
2022-08-19T00:31:00.151Z,0.8
2022-08-19T00:32:00.199Z,0.8
2022-08-19T00:33:00.176Z,0.8
2022-08-19T00:34:00.188Z,0.8
2022-08-19T00:35:00.465Z,0.8
2022-08-19T00:36:00.641Z,0.8
2022-08-19T00:37:00.151Z,0.8
2022-08-19T00:38:00.155Z,0.8
2022-08-19T00:39:00.342Z,0.8
2022-08-19T00:40:00.557Z,0.8
2022-08-19T00:41:00.160Z,0.8
2022-08-19T00:42:00.180Z,0.8
2022-08-19T00:43:00.199Z,0.8
2022-08-19T00:44:03.006Z,0.8
2022-08-19T00:45:00.302Z,0.9
2022-08-19T00:46:00.423Z,0.9
2022-08-19T00:47:01.175Z,0.9
2022-08-19T00:48:00.228Z,0.9
2022-08-19T00:49:01.804Z,0.9
2022-08-19T00:50:00.217Z,0.9
2022-08-19T00:51:00.688Z,0.9
2022-08-19T00:52:03.014Z,0.9
2022-08-19T00:53:00.597Z,0.9
2022-08-19T00:54:01.533Z,0.9
2022-08-19T00:55:00.925Z,0.9
2022-08-19T00:56:00.847Z,0.9
2022-08-19T00:57:03.539Z,0.9
2022-08-19T00:58:03.715Z,0.9
2022-08-19T00:59:01.098Z,0.9
2022-08-19T01:00:03.104Z,0.9
2022-08-19T01:01:00.507Z,0.9
2022-08-19T01:02:00.300Z,0.9
2022-08-19T01:03:00.214Z,0.9
2022-08-19T01:04:00.231Z,0.9
2022-08-19T01:05:02.705Z,0.4
2022-08-19T01:06:00.198Z,0.4
2022-08-19T01:07:01.398Z,0.4
2022-08-19T01:08:01.703Z,0.4
2022-08-19T01:09:00.241Z,0.4
2022-08-19T01:10:00.496Z,0.4
2022-08-19T01:11:00.486Z,0.4
2022-08-19T01:12:00.409Z,0.4
2022-08-19T01:13:00.983Z,0.4
2022-08-19T01:14:00.386Z,0.4
2022-08-19T01:15:00.634Z,0.4
2022-08-19T01:16:06.117Z,0.4
2022-08-19T01:17:00.543Z,0.4
2022-08-19T01:18:03.995Z,0.4
2022-08-19T01:19:00.396Z,0.4
2022-08-19T01:20:00.217Z,0.4
2022-08-19T01:21:01.940Z,0.4
2022-08-19T01:22:13.073Z,0.4
2022-08-19T01:23:00.717Z,0.4
2022-08-19T01:24:00.353Z,0.4
2022-08-19T01:25:00.691Z,1.4
2022-08-19T01:26:00.176Z,1.4
2022-08-19T01:27:03.233Z,1.4
2022-08-19T01:28:03.706Z,1.4
2022-08-19T01:29:00.969Z,1.4
2022-08-19T01:30:00.174Z,1.4
2022-08-19T01:31:00.173Z,1.4
2022-08-19T01:32:00.704Z,1.4
2022-08-19T01:33:00.715Z,1.4
2022-08-19T01:34:01.057Z,1.4
2022-08-19T01:35:00.923Z,1.4
2022-08-19T01:36:09.780Z,1.4
2022-08-19T01:37:05.137Z,1.4
2022-08-19T01:38:02.460Z,1.4
2022-08-19T01:39:01.022Z,1.4
2022-08-19T01:40:00.261Z,1.4
2022-08-19T01:41:00.150Z,1.4
2022-08-19T01:42:00.171Z,1.4
2022-08-19T01:43:00.185Z,1.4
2022-08-19T01:44:03.155Z,1.4
2022-08-19T01:45:00.221Z,0.5
2022-08-19T01:46:00.210Z,0.5
2022-08-19T01:47:00.161Z,0.5
2022-08-19T01:48:02.110Z,0.5
2022-08-19T01:49:01.509Z,0.5
2022-08-19T01:50:00.191Z,0.5
2022-08-19T01:51:00.179Z,0.5
2022-08-19T01:52:00.566Z,0.5
2022-08-19T01:53:02.245Z,0.5
2022-08-19T01:54:00.169Z,0.5
2022-08-19T01:55:00.162Z,0.5
2022-08-19T01:56:00.441Z,0.5
2022-08-19T01:57:02.729Z,0.5
2022-08-19T01:58:01.804Z,0.5
2022-08-19T01:59:01.575Z,0.5
2022-08-19T02:00:00.174Z,0.5
2022-08-19T02:01:00.211Z,0.5
2022-08-19T02:02:00.160Z,0.5
2022-08-19T02:03:00.169Z,0.5
2022-08-19T02:04:00.178Z,0.5
2022-08-19T02:05:00.159Z,0.3
2022-08-19T02:06:01.704Z,0.3
2022-08-19T02:07:00.481Z,0.3
2022-08-19T02:08:00.155Z,0.3
2022-08-19T02:09:00.365Z,0.3
2022-08-19T02:10:03.132Z,0.3
2022-08-19T02:11:00.309Z,0.3
2022-08-19T02:12:00.182Z,0.3
2022-08-19T02:13:00.155Z,0.3
2022-08-19T02:14:01.029Z,0.3
2022-08-19T02:15:00.182Z,0.3
2022-08-19T02:16:00.161Z,0.3
2022-08-19T02:17:00.208Z,0.3
2022-08-19T02:18:00.151Z,0.3
2022-08-19T02:19:00.342Z,0.3
2022-08-19T02:20:00.170Z,0.3
2022-08-19T02:21:00.165Z,0.3
2022-08-19T02:22:00.177Z,0.3
2022-08-19T02:23:00.155Z,0.3
2022-08-19T02:24:00.376Z,0.3
2022-08-19T02:25:00.173Z,1.2
2022-08-19T02:26:00.155Z,1.2
2022-08-19T02:27:00.220Z,1.2
2022-08-19T02:28:00.425Z,1.2
2022-08-19T02:29:00.210Z,1.2
2022-08-19T02:30:00.269Z,1.2
2022-08-19T02:31:00.595Z,1.2
2022-08-19T02:32:00.160Z,1.2
2022-08-19T02:33:00.157Z,1.2
2022-08-19T02:34:00.397Z,1.2
2022-08-19T02:35:00.223Z,1.2
2022-08-19T02:36:02.938Z,1.2
2022-08-19T02:37:03.618Z,1.2
2022-08-19T02:38:00.165Z,1.2
2022-08-19T02:39:00.157Z,1.2
2022-08-19T02:40:00.369Z,1.2
2022-08-19T02:41:01.753Z,1.2
2022-08-19T02:42:00.157Z,1.2
2022-08-19T02:43:02.564Z,1.2
2022-08-19T02:44:29.391Z,1.2
2022-08-19T02:45:00.161Z,0.7
2022-08-19T02:46:00.367Z,0.7
2022-08-19T02:47:00.161Z,0.7
2022-08-19T02:48:00.314Z,0.7
2022-08-19T02:49:02.228Z,0.7
2022-08-19T02:50:01.030Z,0.7
2022-08-19T02:51:00.154Z,0.7
2022-08-19T02:52:00.153Z,0.7
2022-08-19T02:53:00.161Z,0.7
2022-08-19T02:54:00.842Z,0.7
2022-08-19T02:55:00.157Z,0.7
2022-08-19T02:56:00.264Z,0.7
2022-08-19T02:57:00.176Z,0.7
2022-08-19T02:58:00.427Z,0.7
2022-08-19T02:59:00.142Z,0.7
2022-08-19T03:00:00.324Z,0.7
2022-08-19T03:01:00.289Z,0.7
2022-08-19T03:02:00.162Z,0.7
2022-08-19T03:03:00.200Z,0.7
2022-08-19T03:04:01.313Z,0.7
2022-08-19T03:05:00.172Z,1.1
2022-08-19T03:06:04.790Z,1.1
2022-08-19T03:07:10.558Z,1.1
2022-08-19T03:08:00.159Z,1.1
2022-08-19T03:09:00.162Z,1.1
2022-08-19T03:10:00.233Z,1.1
2022-08-19T03:11:00.169Z,1.1
2022-08-19T03:12:00.152Z,1.1
2022-08-19T03:13:00.162Z,1.1
2022-08-19T03:14:00.640Z,1.1
2022-08-19T03:15:00.174Z,1.1
2022-08-19T03:16:04.022Z,1.1
2022-08-19T03:17:00.175Z,1.1
2022-08-19T03:18:00.146Z,1.1
2022-08-19T03:19:00.834Z,1.1
2022-08-19T03:20:00.612Z,1.1
2022-08-19T03:21:00.157Z,1.1
2022-08-19T03:22:00.219Z,1.1
2022-08-19T03:23:00.153Z,1.1
2022-08-19T03:24:01.966Z,1.1
2022-08-19T03:25:00.194Z,1.5
2022-08-19T03:26:15.739Z,1.5
2022-08-19T03:27:00.299Z,1.5
2022-08-19T03:28:00.148Z,1.5
2022-08-19T03:29:04.985Z,1.5
2022-08-19T03:30:00.275Z,1.5
2022-08-19T03:31:01.617Z,1.5
2022-08-19T03:32:00.916Z,1.5
2022-08-19T03:33:00.220Z,1.5
2022-08-19T03:34:00.154Z,1.5
2022-08-19T03:35:00.154Z,1.5
2022-08-19T03:36:01.704Z,1.5
2022-08-19T03:37:03.135Z,1.5
2022-08-19T03:38:00.165Z,1.5
2022-08-19T03:39:00.833Z,1.5
2022-08-19T03:40:00.366Z,1.5
2022-08-19T03:41:02.701Z,1.5
2022-08-19T03:42:32.262Z,1.5
2022-08-19T03:43:00.804Z,1.5
2022-08-19T03:44:00.146Z,1.5
2022-08-19T03:45:00.167Z,1.0
2022-08-19T03:46:01.308Z,1.0
2022-08-19T03:47:00.143Z,1.0
2022-08-19T03:48:00.147Z,1.0
2022-08-19T03:49:01.736Z,1.0
2022-08-19T03:50:00.208Z,1.0
2022-08-19T03:51:00.829Z,1.0
2022-08-19T03:52:00.680Z,1.0
2022-08-19T03:53:00.155Z,1.0
2022-08-19T03:54:01.685Z,1.0
2022-08-19T03:55:00.149Z,1.0
2022-08-19T03:56:00.326Z,1.0
2022-08-19T03:57:00.157Z,1.0
2022-08-19T03:58:00.142Z,1.0
2022-08-19T03:59:00.157Z,1.0
2022-08-19T04:00:12.878Z,1.0
2022-08-19T04:01:00.212Z,1.0
2022-08-19T04:02:01.335Z,1.0
2022-08-19T04:03:00.897Z,1.0
2022-08-19T04:04:00.175Z,1.0
2022-08-19T04:05:00.384Z,1.5
2022-08-19T04:06:08.665Z,1.5
2022-08-19T04:07:00.153Z,1.5
2022-08-19T04:08:00.597Z,1.5
2022-08-19T04:09:02.031Z,1.5
2022-08-19T04:10:00.186Z,1.5
2022-08-19T04:11:00.151Z,1.5
2022-08-19T04:12:00.167Z,1.5
2022-08-19T04:13:00.179Z,1.5
2022-08-19T04:14:00.265Z,1.5
2022-08-19T04:15:00.182Z,1.5
2022-08-19T04:16:00.172Z,1.5
2022-08-19T04:17:01.008Z,1.5
2022-08-19T04:18:00.162Z,1.5
2022-08-19T04:19:00.850Z,1.5
2022-08-19T04:20:00.159Z,1.5
2022-08-19T04:21:00.271Z,1.5
2022-08-19T04:22:00.569Z,1.5
2022-08-19T04:23:00.144Z,1.5
2022-08-19T04:24:00.177Z,1.5
2022-08-19T04:25:00.147Z,0.8
2022-08-19T04:26:00.152Z,0.8
2022-08-19T04:27:00.822Z,0.8
2022-08-19T04:28:00.149Z,0.8
2022-08-19T04:29:01.905Z,0.8
2022-08-19T04:30:00.184Z,0.8
2022-08-19T04:31:00.153Z,0.8
2022-08-19T04:32:08.789Z,0.8
2022-08-19T04:33:00.166Z,0.8
2022-08-19T04:34:00.418Z,0.8
2022-08-19T04:35:01.188Z,0.8
2022-08-19T04:36:00.155Z,0.8
2022-08-19T04:37:00.166Z,0.8
2022-08-19T04:38:00.155Z,0.8
2022-08-19T04:39:01.541Z,0.8
2022-08-19T04:40:02.547Z,0.8
2022-08-19T04:41:02.623Z,0.8
2022-08-19T04:42:00.138Z,0.8
2022-08-19T04:43:00.151Z,0.8
2022-08-19T04:44:04.139Z,0.8
2022-08-19T04:45:00.314Z,1.0
2022-08-19T04:46:10.093Z,1.0
2022-08-19T04:47:00.194Z,1.0
2022-08-19T04:48:27.357Z,1.0
2022-08-19T04:49:01.089Z,1.0
2022-08-19T04:50:00.149Z,1.0
2022-08-19T04:51:00.487Z,1.0
2022-08-19T04:52:00.157Z,1.0
2022-08-19T04:53:00.147Z,1.0
2022-08-19T04:54:00.838Z,1.0
2022-08-19T04:55:00.229Z,1.0
2022-08-19T04:56:03.771Z,1.0
2022-08-19T04:57:00.200Z,1.0
2022-08-19T04:58:00.171Z,1.0
2022-08-19T04:59:00.757Z,1.0
2022-08-19T05:00:00.202Z,1.0
2022-08-19T05:01:00.302Z,1.0
2022-08-19T05:02:00.266Z,1.0
2022-08-19T05:03:00.213Z,1.0
2022-08-19T05:04:01.123Z,1.0
2022-08-19T05:05:00.174Z,1.0
2022-08-19T05:06:08.156Z,1.0
2022-08-19T05:07:01.136Z,1.0
2022-08-19T05:08:00.154Z,1.0
2022-08-19T05:09:01.533Z,1.0
2022-08-19T05:10:00.182Z,1.0
2022-08-19T05:11:00.171Z,1.0
2022-08-19T05:12:00.176Z,1.0
2022-08-19T05:13:00.147Z,1.0
2022-08-19T05:14:00.456Z,1.0
2022-08-19T05:15:00.261Z,1.0
2022-08-19T05:16:00.154Z,1.0
2022-08-19T05:17:25.693Z,1.0
2022-08-19T05:18:00.159Z,1.0
2022-08-19T05:19:00.189Z,1.0
2022-08-19T05:20:00.414Z,1.0
2022-08-19T05:21:05.054Z,1.0
2022-08-19T05:22:00.735Z,1.0
2022-08-19T05:23:00.178Z,1.0
2022-08-19T05:24:00.166Z,1.0
2022-08-19T05:25:12.663Z,0.8
2022-08-19T05:26:00.150Z,0.8
2022-08-19T05:27:00.677Z,0.8
2022-08-19T05:28:00.142Z,0.8
2022-08-19T05:29:00.174Z,0.8
2022-08-19T05:30:00.563Z,0.8
2022-08-19T05:31:00.155Z,0.8
2022-08-19T05:32:01.100Z,0.8
2022-08-19T05:33:00.160Z,0.8
2022-08-19T05:34:00.157Z,0.8
2022-08-19T05:35:00.198Z,0.8
2022-08-19T05:36:01.070Z,0.8
2022-08-19T05:37:01.443Z,0.8
2022-08-19T05:38:00.183Z,0.8
2022-08-19T05:39:00.519Z,0.8
2022-08-19T05:40:00.384Z,0.8
2022-08-19T05:41:00.158Z,0.8
2022-08-19T05:42:02.483Z,0.8
2022-08-19T05:43:00.155Z,0.8
2022-08-19T05:44:02.771Z,0.8
2022-08-19T05:45:00.228Z,0.7
2022-08-19T05:46:00.264Z,0.7
2022-08-19T05:47:01.378Z,0.7
2022-08-19T05:48:00.158Z,0.7
2022-08-19T05:49:00.152Z,0.7
2022-08-19T05:50:00.202Z,0.7
2022-08-19T05:51:04.207Z,0.7
2022-08-19T05:52:02.094Z,0.7
2022-08-19T05:53:00.149Z,0.7
2022-08-19T05:54:00.824Z,0.7
2022-08-19T05:55:00.158Z,0.7
2022-08-19T05:56:08.251Z,0.7
2022-08-19T05:57:00.534Z,0.7
2022-08-19T05:58:00.184Z,0.7
2022-08-19T05:59:00.163Z,0.7
2022-08-19T06:00:00.156Z,0.7
2022-08-19T06:01:00.406Z,0.7
2022-08-19T06:02:00.158Z,0.7
2022-08-19T06:03:00.218Z,0.7
2022-08-19T06:04:00.484Z,0.7
2022-08-19T06:05:00.157Z,1.0
2022-08-19T06:06:00.168Z,1.0
2022-08-19T06:07:00.158Z,1.0
2022-08-19T06:08:00.170Z,1.0
2022-08-19T06:09:00.978Z,1.0
2022-08-19T06:10:01.390Z,1.0
2022-08-19T06:11:10.098Z,1.0
2022-08-19T06:12:00.157Z,1.0
2022-08-19T06:13:00.152Z,1.0
2022-08-19T06:14:02.394Z,1.0
2022-08-19T06:15:02.083Z,1.0
2022-08-19T06:16:00.155Z,1.0
2022-08-19T06:17:04.865Z,1.0
2022-08-19T06:18:00.154Z,1.0
2022-08-19T06:19:00.746Z,1.0
2022-08-19T06:20:00.617Z,1.0
2022-08-19T06:21:00.182Z,1.0
2022-08-19T06:22:00.542Z,1.0
2022-08-19T06:23:00.161Z,1.0
2022-08-19T06:24:00.150Z,1.0
2022-08-19T06:25:00.146Z,1.4
2022-08-19T06:26:00.148Z,1.4
2022-08-19T06:27:01.639Z,1.4
2022-08-19T06:28:15.447Z,1.4
2022-08-19T06:29:00.170Z,1.4
2022-08-19T06:30:00.850Z,1.4
2022-08-19T06:31:05.457Z,1.4
2022-08-19T06:32:01.766Z,1.4
2022-08-19T06:33:00.148Z,1.4
2022-08-19T06:34:01.056Z,1.4
2022-08-19T06:35:00.153Z,1.4
2022-08-19T06:36:00.151Z,1.4
2022-08-19T06:37:01.125Z,1.4
2022-08-19T06:38:00.164Z,1.4
2022-08-19T06:39:01.408Z,1.4
2022-08-19T06:40:00.262Z,1.4
2022-08-19T06:41:01.281Z,1.4
2022-08-19T06:42:02.458Z,1.4
2022-08-19T06:43:00.707Z,1.4
2022-08-19T06:44:00.152Z,1.4
2022-08-19T06:45:00.584Z,1.3
2022-08-19T06:46:00.156Z,1.3
2022-08-19T06:47:01.398Z,1.3
2022-08-19T06:48:00.149Z,1.3
2022-08-19T06:49:00.249Z,1.3
2022-08-19T06:50:01.368Z,1.3
2022-08-19T06:51:00.166Z,1.3
2022-08-19T06:52:00.932Z,1.3
2022-08-19T06:53:01.368Z,1.3
2022-08-19T06:54:00.199Z,1.3
2022-08-19T06:55:01.376Z,1.3
2022-08-19T06:56:00.273Z,1.3
2022-08-19T06:57:01.006Z,1.3
2022-08-19T06:58:01.888Z,1.3
2022-08-19T06:59:01.408Z,1.3
2022-08-19T07:00:00.424Z,1.3
2022-08-19T07:01:05.574Z,1.3
2022-08-19T07:02:02.331Z,1.3
2022-08-19T07:03:03.269Z,1.3
2022-08-19T07:04:00.162Z,1.3
2022-08-19T07:05:00.282Z,0.6
2022-08-19T07:06:07.168Z,0.6
2022-08-19T07:07:19.648Z,0.6
2022-08-19T07:08:04.777Z,0.6
2022-08-19T07:09:00.175Z,0.6
2022-08-19T07:10:02.013Z,0.6
2022-08-19T07:11:00.156Z,0.6
2022-08-19T07:12:00.154Z,0.6
2022-08-19T07:13:00.179Z,0.6
2022-08-19T07:14:01.174Z,0.6
2022-08-19T07:15:00.279Z,0.6
2022-08-19T07:16:02.362Z,0.6
2022-08-19T07:17:00.142Z,0.6
2022-08-19T07:18:00.148Z,0.6
2022-08-19T07:19:00.198Z,0.6
2022-08-19T07:20:04.975Z,0.6
2022-08-19T07:21:04.446Z,0.6
2022-08-19T07:22:01.471Z,0.6
2022-08-19T07:23:00.149Z,0.6
2022-08-19T07:24:01.908Z,0.6
2022-08-19T07:25:00.223Z,1.4
2022-08-19T07:26:07.592Z,1.4
2022-08-19T07:27:01.193Z,1.4
2022-08-19T07:28:00.168Z,1.4
2022-08-19T07:29:00.154Z,1.4
2022-08-19T07:30:00.206Z,1.4
2022-08-19T07:31:00.163Z,1.4
2022-08-19T07:32:00.873Z,1.4
2022-08-19T07:33:00.165Z,1.4
2022-08-19T07:34:00.149Z,1.4
2022-08-19T07:35:00.164Z,1.4
2022-08-19T07:36:00.151Z,1.4
2022-08-19T07:37:00.164Z,1.4
2022-08-19T07:38:00.572Z,1.4
2022-08-19T07:39:01.612Z,1.4
2022-08-19T07:40:00.729Z,1.4
2022-08-19T07:41:00.808Z,1.4
2022-08-19T07:42:01.345Z,1.4
2022-08-19T07:43:00.196Z,1.4
2022-08-19T07:44:00.176Z,1.4
2022-08-19T07:45:00.210Z,0.9
2022-08-19T07:46:00.219Z,0.9
2022-08-19T07:47:00.620Z,0.9
2022-08-19T07:48:00.624Z,0.9
2022-08-19T07:49:00.154Z,0.9
2022-08-19T07:50:00.167Z,0.9
2022-08-19T07:51:01.635Z,0.9
2022-08-19T07:52:02.880Z,0.9
2022-08-19T07:53:00.165Z,0.9
2022-08-19T07:54:00.167Z,0.9
2022-08-19T07:55:00.156Z,0.9
2022-08-19T07:56:00.705Z,0.9
2022-08-19T07:57:00.395Z,0.9
2022-08-19T07:58:00.157Z,0.9
2022-08-19T07:59:00.334Z,0.9
2022-08-19T08:00:00.271Z,0.9
2022-08-19T08:01:00.759Z,0.9
2022-08-19T08:02:00.287Z,0.9
2022-08-19T08:03:00.166Z,0.9
2022-08-19T08:04:00.153Z,0.9
2022-08-19T08:05:00.149Z,0.8
2022-08-19T08:06:00.163Z,0.8
2022-08-19T08:07:00.394Z,0.8
2022-08-19T08:08:00.157Z,0.8
2022-08-19T08:09:01.450Z,0.8
2022-08-19T08:10:02.766Z,0.8
2022-08-19T08:11:00.199Z,0.8
2022-08-19T08:12:05.199Z,0.8
2022-08-19T08:13:09.608Z,0.8
2022-08-19T08:14:04.518Z,0.8
2022-08-19T08:15:01.623Z,0.8
2022-08-19T08:16:00.402Z,0.8
2022-08-19T08:17:00.899Z,0.8
2022-08-19T08:18:00.156Z,0.8
2022-08-19T08:19:00.408Z,0.8
2022-08-19T08:20:00.223Z,0.8
2022-08-19T08:21:00.152Z,0.8
2022-08-19T08:22:00.662Z,0.8
2022-08-19T08:23:00.150Z,0.8
2022-08-19T08:25:01.309Z,10.1
2022-08-19T08:26:00.217Z,10.1
2022-08-19T08:27:00.655Z,10.1
2022-08-19T08:28:00.146Z,10.1
2022-08-19T08:29:00.203Z,10.1
2022-08-19T08:30:00.164Z,10.1
2022-08-19T08:31:00.156Z,10.1
2022-08-19T08:32:00.436Z,10.1
2022-08-19T08:33:00.179Z,10.1
2022-08-19T08:34:00.178Z,10.1
2022-08-19T08:35:00.166Z,10.1
2022-08-19T08:36:01.140Z,10.1
2022-08-19T08:37:00.150Z,10.1
2022-08-19T08:38:00.168Z,10.1
2022-08-19T08:39:00.302Z,10.1
2022-08-19T08:40:05.014Z,10.1
2022-08-19T08:41:06.099Z,10.1
2022-08-19T08:42:17.523Z,10.1
2022-08-19T08:43:05.959Z,10.1
2022-08-19T08:44:00.716Z,0.9
2022-08-19T08:45:06.348Z,0.9
2022-08-19T08:46:03.679Z,0.9
2022-08-19T08:47:01.981Z,0.9
2022-08-19T08:48:03.848Z,0.9
2022-08-19T08:49:10.088Z,0.9
2022-08-19T08:50:04.210Z,0.9
2022-08-19T08:51:03.272Z,0.9
2022-08-19T08:52:03.218Z,0.9
2022-08-19T08:53:00.159Z,0.9
2022-08-19T08:54:01.341Z,0.9
2022-08-19T08:55:03.502Z,0.9
2022-08-19T08:56:02.284Z,0.9
2022-08-19T08:57:00.305Z,0.9
2022-08-19T08:58:02.917Z,0.9
2022-08-19T08:59:05.531Z,0.9
2022-08-19T09:00:03.369Z,0.9
2022-08-19T09:01:00.162Z,0.9
2022-08-19T09:02:00.284Z,0.9
2022-08-19T09:03:00.713Z,0.9
2022-08-19T09:04:02.933Z,2.3
2022-08-19T09:05:00.220Z,2.3
2022-08-19T09:06:03.070Z,2.3
2022-08-19T09:07:18.602Z,2.3
2022-08-19T09:08:00.127Z,2.3
2022-08-19T09:09:11.923Z,2.3
2022-08-19T09:10:07.019Z,2.3
2022-08-19T09:11:03.400Z,2.3
2022-08-19T09:12:00.128Z,2.3
2022-08-19T09:13:03.382Z,2.3
2022-08-19T09:14:23.541Z,2.3
2022-08-19T09:15:02.594Z,2.3
2022-08-19T09:16:02.111Z,2.3
2022-08-19T09:17:00.164Z,2.3
2022-08-19T09:18:00.999Z,2.3
2022-08-19T09:19:01.805Z,2.3
2022-08-19T09:20:02.246Z,2.3
2022-08-19T09:21:00.148Z,2.3
2022-08-19T09:22:00.154Z,2.3
2022-08-19T09:23:00.160Z,2.3
2022-08-19T09:24:03.387Z,4.4
2022-08-19T09:25:00.162Z,4.4
2022-08-19T09:26:00.153Z,4.4
2022-08-19T09:27:00.151Z,4.4
2022-08-19T09:28:03.082Z,4.4
2022-08-19T09:29:00.574Z,4.4
2022-08-19T09:30:00.157Z,4.4
2022-08-19T09:31:00.210Z,4.4
2022-08-19T09:32:00.171Z,4.4
2022-08-19T09:33:00.184Z,4.4
2022-08-19T09:34:00.158Z,4.4
2022-08-19T09:35:00.918Z,4.4
2022-08-19T09:36:08.802Z,4.4
2022-08-19T09:37:00.151Z,4.4
2022-08-19T09:38:00.285Z,4.4
2022-08-19T09:39:00.284Z,4.4
2022-08-19T09:40:00.298Z,4.4
2022-08-19T09:41:09.317Z,4.4
2022-08-19T09:42:00.341Z,4.4
2022-08-19T09:43:00.156Z,4.4
2022-08-19T09:44:00.148Z,0.3
2022-08-19T09:45:00.540Z,0.3
2022-08-19T09:46:00.645Z,0.3
2022-08-19T09:47:00.149Z,0.3
2022-08-19T09:48:00.146Z,0.3
2022-08-19T09:49:06.059Z,0.3
2022-08-19T09:50:00.160Z,0.3
2022-08-19T09:51:11.954Z,0.3
2022-08-19T09:52:00.175Z,0.3
2022-08-19T09:53:00.156Z,0.3
2022-08-19T09:54:01.593Z,0.3
2022-08-19T09:55:00.508Z,0.3
2022-08-19T09:56:00.523Z,0.3
2022-08-19T09:57:00.415Z,0.3
2022-08-19T09:58:00.945Z,0.3
2022-08-19T09:59:01.690Z,0.3
2022-08-19T10:00:00.205Z,0.3
2022-08-19T10:01:01.236Z,0.3
2022-08-19T10:02:04.016Z,0.3
2022-08-19T10:03:00.143Z,0.3
2022-08-19T10:04:00.735Z,1.2
2022-08-19T10:05:00.333Z,1.2
2022-08-19T10:06:00.946Z,1.2
2022-08-19T10:07:00.150Z,1.2
2022-08-19T10:08:00.143Z,1.2
2022-08-19T10:09:01.295Z,1.2
2022-08-19T10:10:00.153Z,1.2
2022-08-19T10:11:28.854Z,1.2
2022-08-19T10:12:00.958Z,1.2
2022-08-19T10:13:00.160Z,1.2
2022-08-19T10:14:00.826Z,1.2
2022-08-19T10:15:00.946Z,1.2
2022-08-19T10:16:05.067Z,1.2
2022-08-19T10:17:01.143Z,1.2
2022-08-19T10:18:00.212Z,1.2
2022-08-19T10:19:00.148Z,1.2
2022-08-19T10:20:00.194Z,1.2
2022-08-19T10:21:07.047Z,1.2
2022-08-19T10:22:02.132Z,1.2
2022-08-19T10:23:00.149Z,1.2
2022-08-19T10:24:01.118Z,0.5
2022-08-19T10:25:00.147Z,0.5
2022-08-19T10:26:00.965Z,0.5
2022-08-19T10:27:01.035Z,0.5
2022-08-19T10:28:00.213Z,0.5
2022-08-19T10:29:00.168Z,0.5
2022-08-19T10:30:01.393Z,0.5
2022-08-19T10:31:03.379Z,0.5
2022-08-19T10:32:02.622Z,0.5
2022-08-19T10:33:00.194Z,0.5
2022-08-19T10:34:00.733Z,0.5
2022-08-19T10:35:00.347Z,0.5
2022-08-19T10:36:01.496Z,0.5
2022-08-19T10:37:01.779Z,0.5
2022-08-19T10:38:02.194Z,0.5
2022-08-19T10:39:01.225Z,0.5
2022-08-19T10:40:00.363Z,0.5
2022-08-19T10:41:06.542Z,0.5
2022-08-19T10:42:04.143Z,0.5
2022-08-19T10:43:00.144Z,0.5
2022-08-19T10:44:04.011Z,1.5
2022-08-19T10:45:00.286Z,1.5
2022-08-19T10:46:00.241Z,1.5
2022-08-19T10:47:00.164Z,1.5
2022-08-19T10:48:00.165Z,1.5
2022-08-19T10:49:00.905Z,1.5
2022-08-19T10:50:00.174Z,1.5
2022-08-19T10:51:00.333Z,1.5
2022-08-19T10:52:00.153Z,1.5
2022-08-19T10:53:03.985Z,1.5
2022-08-19T10:54:00.435Z,1.5
2022-08-19T10:55:05.050Z,1.5
2022-08-19T10:56:00.156Z,1.5
2022-08-19T10:57:00.166Z,1.5
2022-08-19T10:58:02.536Z,1.5
2022-08-19T10:59:00.287Z,1.5
2022-08-19T11:00:00.180Z,1.5
2022-08-19T11:01:00.221Z,1.5
2022-08-19T11:02:00.847Z,1.5
2022-08-19T11:03:00.159Z,1.5
2022-08-19T11:04:01.143Z,0.5
2022-08-19T11:05:04.820Z,0.5
2022-08-19T11:06:01.205Z,0.5
2022-08-19T11:07:00.148Z,0.5
2022-08-19T11:08:00.148Z,0.5
2022-08-19T11:09:00.164Z,0.5
2022-08-19T11:10:00.182Z,0.5
2022-08-19T11:11:01.157Z,0.5
2022-08-19T11:12:03.038Z,0.5
2022-08-19T11:13:00.166Z,0.5
2022-08-19T11:14:00.166Z,0.5
2022-08-19T11:15:00.153Z,0.5
2022-08-19T11:16:06.536Z,0.5
2022-08-19T11:17:00.599Z,0.5
2022-08-19T11:18:00.150Z,0.5
2022-08-19T11:19:00.182Z,0.5
2022-08-19T11:20:00.153Z,0.5
2022-08-19T11:21:10.091Z,0.5
2022-08-19T11:22:00.298Z,0.5
2022-08-19T11:23:00.144Z,0.5
2022-08-19T11:24:02.952Z,0.2
2022-08-19T11:25:00.145Z,0.2
2022-08-19T11:26:00.145Z,0.2
2022-08-19T11:27:01.589Z,0.2
2022-08-19T11:28:00.159Z,0.2
2022-08-19T11:29:00.661Z,0.2
2022-08-19T11:30:00.171Z,0.2
2022-08-19T11:31:00.177Z,0.2
2022-08-19T11:32:03.015Z,0.2
2022-08-19T11:33:00.162Z,0.2
2022-08-19T11:34:01.840Z,0.2
2022-08-19T11:35:00.158Z,0.2
2022-08-19T11:36:00.154Z,0.2
2022-08-19T11:37:01.024Z,0.2
2022-08-19T11:38:00.154Z,0.2
2022-08-19T11:39:00.920Z,0.2
2022-08-19T11:40:00.289Z,0.2
2022-08-19T11:41:01.433Z,0.2
2022-08-19T11:42:00.503Z,0.2
2022-08-19T11:43:00.157Z,0.2
2022-08-19T11:44:00.155Z,1.6
2022-08-19T11:45:00.148Z,1.6
2022-08-19T11:46:03.528Z,1.6
2022-08-19T11:47:00.145Z,1.6
2022-08-19T11:48:00.158Z,1.6
2022-08-19T11:49:00.407Z,1.6
2022-08-19T11:50:00.191Z,1.6
2022-08-19T11:51:03.671Z,1.6
2022-08-19T11:52:00.147Z,1.6
2022-08-19T11:53:00.158Z,1.6
2022-08-19T11:54:00.724Z,1.6
2022-08-19T11:55:00.149Z,1.6
2022-08-19T11:56:00.522Z,1.6
2022-08-19T11:57:01.803Z,1.6
2022-08-19T11:58:00.145Z,1.6
2022-08-19T11:59:00.346Z,1.6
2022-08-19T12:00:00.175Z,1.6
2022-08-19T12:01:00.553Z,1.6
2022-08-19T12:02:00.155Z,1.6
2022-08-19T12:03:00.152Z,1.6
2022-08-19T12:04:00.346Z,1.0
2022-08-19T12:05:00.148Z,1.0
2022-08-19T12:06:04.262Z,1.0
2022-08-19T12:07:00.154Z,1.0
2022-08-19T12:08:00.151Z,1.0
2022-08-19T12:09:02.789Z,1.0
2022-08-19T12:10:00.383Z,1.0
2022-08-19T12:11:00.177Z,1.0
2022-08-19T12:12:00.358Z,1.0
2022-08-19T12:13:00.210Z,1.0
2022-08-19T12:14:00.390Z,1.0
2022-08-19T12:15:00.177Z,1.0
2022-08-19T12:16:00.346Z,1.0
2022-08-19T12:17:00.151Z,1.0
2022-08-19T12:18:00.152Z,1.0
2022-08-19T12:19:00.732Z,1.0
2022-08-19T12:20:00.172Z,1.0
2022-08-19T12:21:00.141Z,1.0
2022-08-19T12:22:00.541Z,1.0
2022-08-19T12:23:00.149Z,1.0
2022-08-19T12:24:00.783Z,0.4
2022-08-19T12:25:00.172Z,0.4
2022-08-19T12:26:00.158Z,0.4
2022-08-19T12:27:02.862Z,0.4
2022-08-19T12:28:00.827Z,0.4
2022-08-19T12:29:00.172Z,0.4
2022-08-19T12:30:00.156Z,0.4
2022-08-19T12:31:00.172Z,0.4
2022-08-19T12:32:00.153Z,0.4
2022-08-19T12:33:00.150Z,0.4
2022-08-19T12:34:00.149Z,0.4
2022-08-19T12:35:00.173Z,0.4
2022-08-19T12:36:01.149Z,0.4
2022-08-19T12:37:01.240Z,0.4
2022-08-19T12:38:00.517Z,0.4
2022-08-19T12:39:00.161Z,0.4
2022-08-19T12:40:00.632Z,0.4
2022-08-19T12:41:00.509Z,0.4
2022-08-19T12:42:00.139Z,0.4
2022-08-19T12:43:00.143Z,0.4
2022-08-19T12:44:00.153Z,0.3
2022-08-19T12:45:00.199Z,0.3
2022-08-19T12:46:00.345Z,0.3
2022-08-19T12:47:00.809Z,0.3
2022-08-19T12:48:00.210Z,0.3
2022-08-19T12:49:00.143Z,0.3
2022-08-19T12:50:00.945Z,0.3
2022-08-19T12:51:00.563Z,0.3
2022-08-19T12:52:00.829Z,0.3
2022-08-19T12:53:00.153Z,0.3
2022-08-19T12:54:00.171Z,0.3
2022-08-19T12:55:00.154Z,0.3
2022-08-19T12:56:00.297Z,0.3
2022-08-19T12:57:00.159Z,0.3
2022-08-19T12:58:00.245Z,0.3
2022-08-19T12:59:02.259Z,0.3
2022-08-19T13:00:01.956Z,0.3
2022-08-19T13:01:06.272Z,0.3
2022-08-19T13:02:00.294Z,0.3
2022-08-19T13:03:00.749Z,0.3
2022-08-19T13:04:00.151Z,1.9
2022-08-19T13:05:00.469Z,1.9
2022-08-19T13:06:00.179Z,1.9
2022-08-19T13:07:00.182Z,1.9
2022-08-19T13:08:00.287Z,1.9
2022-08-19T13:09:00.189Z,1.9
2022-08-19T13:10:00.354Z,1.9
2022-08-19T13:11:10.104Z,1.9
2022-08-19T13:12:00.170Z,1.9
2022-08-19T13:13:01.132Z,1.9
2022-08-19T13:14:00.935Z,1.9
2022-08-19T13:15:00.313Z,1.9
2022-08-19T13:16:00.957Z,1.9
2022-08-19T13:17:00.457Z,1.9
2022-08-19T13:18:00.207Z,1.9
2022-08-19T13:19:00.173Z,1.9
2022-08-19T13:20:00.420Z,1.9
2022-08-19T13:21:08.763Z,1.9
2022-08-19T13:22:00.462Z,1.9
2022-08-19T13:23:00.148Z,1.9
2022-08-19T13:24:00.178Z,0.1
2022-08-19T13:25:00.158Z,0.1
2022-08-19T13:26:01.070Z,0.1
2022-08-19T13:27:00.773Z,0.1
2022-08-19T13:28:00.156Z,0.1
2022-08-19T13:29:00.153Z,0.1
2022-08-19T13:30:00.475Z,0.1
2022-08-19T13:31:00.149Z,0.1
2022-08-19T13:32:00.159Z,0.1
2022-08-19T13:33:00.157Z,0.1
2022-08-19T13:34:00.727Z,0.1
2022-08-19T13:35:00.194Z,0.1
2022-08-19T13:36:00.184Z,0.1
2022-08-19T13:37:00.771Z,0.1
2022-08-19T13:38:00.155Z,0.1
2022-08-19T13:39:00.145Z,0.1
2022-08-19T13:40:00.277Z,0.1
2022-08-19T13:41:09.937Z,0.1
2022-08-19T13:42:00.557Z,0.1
2022-08-19T13:43:01.117Z,0.1
2022-08-19T13:44:00.292Z,3.5
2022-08-19T13:45:00.163Z,3.5
2022-08-19T13:46:07.770Z,3.5